createdAt,value
2019-05-06T00:00:34.076Z,4.42
2019-05-06T00:03:05.159Z,4.35
2019-05-06T00:05:35.573Z,4.32
2019-05-06T00:08:05.853Z,4.25
2019-05-06T00:10:36.933Z,4.21
2019-05-06T00:13:07.391Z,4.21
2019-05-06T00:15:37.814Z,4.26
2019-05-06T00:18:08.190Z,4.29
2019-05-06T00:20:38.932Z,4.34
2019-05-06T00:23:18.161Z,4.28
2019-05-06T00:26:05.859Z,4.24
2019-05-06T00:28:44.499Z,4.26
2019-05-06T00:31:16.694Z,4.23
2019-05-06T00:33:47.394Z,4.15
2019-05-06T00:36:17.728Z,4.09
2019-05-06T00:38:54.055Z,4.02
2019-05-06T00:41:28.972Z,3.95
2019-05-06T00:43:59.603Z,3.90
2019-05-06T00:46:30.058Z,3.82
2019-05-06T00:49:00.628Z,3.69
2019-05-06T00:51:30.925Z,3.60
2019-05-06T00:54:07.089Z,3.51
2019-05-06T00:56:37.659Z,3.54
2019-05-06T00:59:08.667Z,3.57
2019-05-06T01:01:38.968Z,3.58
2019-05-06T01:04:09.722Z,3.56
2019-05-06T01:06:40.028Z,3.53
2019-05-06T01:09:16.393Z,3.45
2019-05-06T01:11:48.411Z,3.40
2019-05-06T01:14:27.346Z,3.32
2019-05-06T01:16:57.642Z,3.34
2019-05-06T01:19:28.211Z,3.42
2019-05-06T01:21:58.836Z,3.45
2019-05-06T01:24:29.412Z,3.44
2019-05-06T01:27:00.696Z,3.42
2019-05-06T01:29:32.167Z,3.41
2019-05-06T01:32:03.703Z,3.35
2019-05-06T01:34:37.324Z,3.33
2019-05-06T01:37:14.261Z,3.30
2019-05-06T01:40:04.495Z,3.27
2019-05-06T01:42:44.750Z,3.33
2019-05-06T01:45:15.000Z,3.34
2019-05-06T01:47:45.289Z,3.32
2019-05-06T01:50:15.681Z,3.26
2019-05-06T01:52:47.976Z,3.25
2019-05-06T01:55:18.250Z,3.25
2019-05-06T01:57:48.776Z,3.21
2019-05-06T02:00:19.532Z,3.17
2019-05-06T02:02:49.843Z,3.25
2019-05-06T02:05:20.430Z,3.22
2019-05-06T02:07:50.815Z,3.16
2019-05-06T02:10:21.090Z,3.05
2019-05-06T02:12:51.394Z,2.95
2019-05-06T02:15:23.897Z,2.92
2019-05-06T02:17:55.120Z,2.86
2019-05-06T02:20:25.776Z,2.85
2019-05-06T02:23:17.286Z,2.81
2019-05-06T02:25:50.552Z,2.76
2019-05-06T02:28:23.606Z,2.75
2019-05-06T02:31:05.499Z,2.77
2019-05-06T02:33:55.834Z,2.68
2019-05-06T02:36:58.086Z,2.59
2019-05-06T02:39:29.123Z,2.54
2019-05-06T02:41:59.400Z,2.63
2019-05-06T02:44:33.636Z,2.66
2019-05-06T02:47:23.310Z,2.67
2019-05-06T02:49:57.192Z,2.68
2019-05-06T02:52:27.646Z,2.66
2019-05-06T02:54:58.217Z,2.74
2019-05-06T02:57:28.497Z,2.70
2019-05-06T02:59:59.192Z,2.69
2019-05-06T03:02:41.935Z,2.74
2019-05-06T03:05:04.238Z,2.73
2019-05-06T03:07:37.799Z,2.67
2019-05-06T03:10:12.778Z,2.60
2019-05-06T03:12:43.021Z,2.55
2019-05-06T03:15:16.614Z,2.61
2019-05-06T03:17:46.787Z,2.66
2019-05-06T03:20:32.850Z,2.68
2019-05-06T03:23:06.538Z,2.68
2019-05-06T03:25:39.191Z,2.72
2019-05-06T03:28:09.706Z,2.67
2019-05-06T03:30:45.337Z,2.62
2019-05-06T03:33:37.259Z,2.58
2019-05-06T03:35:57.729Z,2.55
2019-05-06T03:38:15.953Z,2.50
2019-05-06T03:40:46.547Z,2.42
2019-05-06T03:43:16.870Z,2.42
2019-05-06T03:46:09.390Z,2.52
2019-05-06T03:48:44.277Z,2.70
2019-05-06T03:51:13.840Z,2.85
2019-05-06T03:53:45.693Z,2.99
2019-05-06T03:56:20.059Z,3.10
2019-05-06T03:58:53.612Z,3.25
2019-05-06T04:01:24.354Z,3.41
2019-05-06T04:03:57.129Z,3.54
2019-05-06T04:06:27.245Z,3.66
2019-05-06T04:08:58.167Z,3.75
2019-05-06T04:11:28.702Z,3.86
2019-05-06T04:14:02.845Z,3.91
2019-05-06T04:16:44.385Z,3.97
2019-05-06T04:19:28.616Z,4.02
2019-05-06T04:22:12.918Z,4.04
2019-05-06T04:24:53.855Z,4.03
2019-05-06T04:27:33.484Z,3.98
2019-05-06T04:30:05.707Z,3.98
2019-05-06T04:32:36.087Z,4.00
2019-05-06T04:35:07.740Z,4.07
2019-05-06T04:37:38.023Z,4.14
2019-05-06T04:40:08.610Z,4.24
2019-05-06T04:42:44.364Z,4.35
2019-05-06T04:45:17.477Z,4.46
2019-05-06T04:47:46.570Z,4.56
2019-05-06T04:50:16.919Z,4.62
2019-05-06T04:53:04.537Z,4.68
2019-05-06T04:55:35.643Z,4.76
2019-05-06T04:58:06.439Z,4.82
2019-05-06T05:00:38.653Z,4.93
2019-05-06T05:03:10.423Z,5.01
2019-05-06T05:05:44.892Z,5.07
2019-05-06T05:08:15.524Z,5.13
2019-05-06T05:11:04.794Z,5.16
2019-05-06T05:13:53.307Z,5.18
2019-05-06T05:16:42.887Z,5.18
2019-05-06T05:19:13.694Z,5.22
2019-05-06T05:21:44.182Z,5.34
2019-05-06T05:24:14.938Z,5.47
2019-05-06T05:26:47.160Z,5.58
2019-05-06T05:29:17.738Z,5.74
2019-05-06T05:31:48.116Z,5.74
2019-05-06T05:34:18.730Z,5.86
2019-05-06T05:36:48.986Z,5.94
2019-05-06T05:39:19.576Z,6.04
2019-05-06T05:41:52.130Z,6.12
2019-05-06T05:44:29.118Z,6.24
2019-05-06T05:46:59.963Z,6.34
2019-05-06T05:49:55.465Z,6.47
2019-05-06T05:52:26.032Z,6.53
2019-05-06T05:54:56.796Z,6.73
2019-05-06T05:57:28.220Z,6.92
2019-05-06T05:59:58.914Z,7.02
2019-05-06T06:02:33.258Z,7.14
2019-05-06T06:05:03.550Z,7.20
2019-05-06T06:07:35.319Z,7.21
2019-05-06T06:10:35.085Z,7.19
2019-05-06T06:13:06.172Z,7.02
2019-05-06T06:15:58.572Z,7.02
2019-05-06T06:18:43.298Z,6.97
2019-05-06T06:21:32.476Z,6.93
2019-05-06T06:24:17.822Z,6.92
2019-05-06T06:26:49.458Z,7.03
2019-05-06T06:29:20.064Z,7.13
2019-05-06T06:32:16.213Z,7.38
2019-05-06T06:35:14.568Z,7.68
2019-05-06T06:37:55.784Z,8.04
2019-05-06T06:40:28.246Z,8.40
2019-05-06T06:43:06.114Z,8.34
2019-05-06T06:45:36.838Z,8.49
2019-05-06T06:48:07.258Z,8.68
2019-05-06T06:50:37.831Z,9.10
2019-05-06T06:53:08.262Z,9.46
2019-05-06T06:55:42.562Z,9.51
2019-05-06T06:58:32.399Z,9.71
2019-05-06T07:01:33.030Z,9.86
2019-05-06T07:04:12.996Z,9.78
2019-05-06T07:06:45.912Z,9.74
2019-05-06T07:09:16.226Z,9.79
2019-05-06T07:11:46.799Z,9.75
2019-05-06T07:14:22.619Z,9.87
2019-05-06T07:16:54.198Z,10.04
2019-05-06T07:19:33.022Z,10.06
2019-05-06T07:22:06.656Z,10.01
2019-05-06T07:24:35.548Z,10.21
2019-05-06T07:27:12.528Z,10.73
2019-05-06T07:29:48.065Z,11.47
2019-05-06T07:32:16.210Z,12.41
2019-05-06T07:34:46.533Z,13.51
2019-05-06T07:37:18.085Z,14.24
2019-05-06T07:39:48.484Z,17.11
2019-05-06T07:42:27.761Z,20.28
2019-05-06T07:45:12.497Z,22.46
2019-05-06T07:47:55.478Z,25.18
2019-05-06T07:50:25.860Z,27.46
2019-05-06T07:53:09.495Z,28.53
2019-05-06T07:55:42.240Z,29.21
2019-05-06T07:58:13.802Z,29.97
2019-05-06T08:00:44.557Z,30.76
2019-05-06T08:03:15.230Z,31.13
2019-05-06T08:05:56.872Z,29.27
2019-05-06T08:08:18.138Z,29.50
2019-05-06T08:10:48.650Z,30.68
2019-05-06T08:13:19.229Z,32.27
2019-05-06T08:15:49.841Z,32.53
2019-05-06T08:18:21.936Z,33.18
2019-05-06T08:20:52.714Z,33.21
2019-05-06T08:23:32.665Z,33.75
2019-05-06T08:26:12.142Z,34.42
2019-05-06T08:28:41.056Z,25.69
2019-05-06T08:31:08.438Z,25.69
2019-05-06T08:33:39.040Z,23.52
2019-05-06T08:36:14.910Z,26.39
2019-05-06T08:38:57.761Z,27.00
2019-05-06T08:41:28.566Z,30.30
2019-05-06T08:44:02.385Z,31.91
2019-05-06T08:46:32.969Z,33.11
2019-05-06T08:49:04.795Z,28.05
2019-05-06T08:51:53.071Z,23.89
2019-05-06T08:54:32.348Z,23.38
2019-05-06T08:57:02.781Z,24.75
2019-05-06T08:59:33.389Z,21.92
2019-05-06T09:02:04.699Z,19.70
2019-05-06T09:04:35.092Z,18.63
2019-05-06T09:07:05.696Z,18.91
2019-05-06T09:09:36.041Z,19.01
2019-05-06T09:12:06.668Z,18.42
2019-05-06T09:14:37.364Z,18.41
2019-05-06T09:17:08.224Z,19.10
2019-05-06T09:19:38.610Z,19.39
2019-05-06T09:22:09.298Z,24.92
2019-05-06T09:24:39.976Z,26.71
2019-05-06T09:27:18.941Z,26.70
2019-05-06T09:29:52.169Z,26.22
2019-05-06T09:32:35.635Z,23.38
2019-05-06T09:35:03.608Z,23.38
2019-05-06T09:37:35.173Z,22.39
2019-05-06T09:40:06.198Z,20.68
2019-05-06T09:42:36.889Z,18.98
2019-05-06T09:45:07.584Z,18.67
2019-05-06T09:48:12.814Z,18.47
2019-05-06T09:50:46.683Z,18.02
2019-05-06T09:53:25.503Z,16.62
2019-05-06T09:56:13.600Z,14.84
2019-05-06T09:58:44.754Z,13.65
2019-05-06T10:01:16.015Z,12.90
2019-05-06T10:03:46.709Z,12.35
2019-05-06T10:06:17.174Z,12.12
2019-05-06T10:08:48.096Z,12.05
2019-05-06T10:11:18.489Z,11.99
2019-05-06T10:13:48.994Z,12.00
2019-05-06T10:16:21.242Z,11.99
2019-05-06T10:18:54.277Z,12.10
2019-05-06T10:21:26.213Z,12.29
2019-05-06T10:23:56.479Z,12.55
2019-05-06T10:26:29.810Z,12.81
2019-05-06T10:29:22.219Z,13.23
2019-05-06T10:32:05.494Z,13.62
2019-05-06T10:34:37.048Z,13.94
2019-05-06T10:37:33.549Z,14.32
2019-05-06T10:40:15.556Z,14.32
2019-05-06T10:42:52.301Z,14.20
2019-05-06T10:45:33.919Z,14.06
2019-05-06T10:48:04.514Z,13.86
2019-05-06T10:50:39.500Z,13.20
2019-05-06T10:53:18.773Z,12.59
2019-05-06T10:55:53.661Z,11.97
2019-05-06T10:58:24.094Z,11.67
2019-05-06T11:01:09.007Z,11.41
2019-05-06T11:03:39.343Z,11.26
2019-05-06T11:06:13.138Z,11.27
2019-05-06T11:08:43.093Z,11.45
2019-05-06T11:11:20.113Z,11.69
2019-05-06T11:13:46.687Z,12.00
2019-05-06T11:16:19.310Z,12.23
2019-05-06T11:18:49.981Z,12.44
2019-05-06T11:21:22.910Z,12.60
2019-05-06T11:23:54.034Z,12.82
2019-05-06T11:26:25.791Z,12.89
2019-05-06T11:29:00.015Z,12.88
2019-05-06T11:31:43.250Z,12.89
2019-05-06T11:34:28.253Z,12.84
2019-05-06T11:37:16.430Z,12.76
2019-05-06T11:39:46.746Z,12.92
2019-05-06T11:42:27.563Z,13.35
2019-05-06T11:44:52.900Z,13.82
2019-05-06T11:47:23.480Z,14.03
2019-05-06T11:49:56.599Z,14.31
2019-05-06T11:52:26.969Z,14.68
2019-05-06T11:54:59.477Z,14.96
2019-05-06T11:57:29.945Z,15.68
2019-05-06T12:00:02.960Z,16.21
2019-05-06T12:02:33.070Z,16.13
2019-05-06T12:05:04.584Z,16.07
2019-05-06T12:07:35.078Z,16.07
2019-05-06T12:10:06.868Z,16.26
2019-05-06T12:12:37.213Z,16.16
2019-05-06T12:15:09.167Z,16.19
2019-05-06T12:17:41.986Z,16.34
2019-05-06T12:20:14.352Z,16.56
2019-05-06T12:22:45.246Z,16.88
2019-05-06T12:25:17.460Z,17.08
2019-05-06T12:27:48.075Z,17.42
2019-05-06T12:30:23.172Z,17.22
2019-05-06T12:33:13.044Z,17.18
2019-05-06T12:35:47.333Z,16.87
2019-05-06T12:38:30.319Z,16.71
2019-05-06T12:40:59.979Z,16.91
2019-05-06T12:43:40.042Z,16.30
2019-05-06T12:46:23.941Z,16.12
2019-05-06T12:48:54.535Z,15.94
2019-05-06T12:51:24.850Z,16.01
2019-05-06T12:53:55.170Z,16.24
2019-05-06T12:56:25.950Z,15.66
2019-05-06T12:58:56.561Z,15.49
2019-05-06T13:01:26.901Z,15.04
2019-05-06T13:03:57.222Z,15.12
2019-05-06T13:06:28.857Z,15.24
2019-05-06T13:09:04.076Z,14.80
2019-05-06T13:11:33.345Z,14.80
2019-05-06T13:14:04.412Z,15.04
2019-05-06T13:16:36.106Z,15.38
2019-05-06T13:19:07.436Z,15.45
2019-05-06T13:21:38.179Z,15.86
2019-05-06T13:24:09.564Z,16.06
2019-05-06T13:26:40.410Z,16.23
2019-05-06T13:29:16.802Z,16.11
2019-05-06T13:31:47.643Z,15.88
2019-05-06T13:34:20.532Z,15.78
2019-05-06T13:36:53.443Z,15.52
2019-05-06T13:39:24.047Z,15.56
2019-05-06T13:41:54.873Z,15.51
2019-05-06T13:44:26.270Z,15.25
2019-05-06T13:46:56.558Z,14.90
2019-05-06T13:49:49.184Z,14.09
2019-05-06T13:52:23.116Z,14.09
2019-05-06T13:54:53.721Z,13.82
2019-05-06T13:57:25.315Z,13.61
2019-05-06T13:59:55.942Z,13.37
2019-05-06T14:02:35.861Z,13.09
2019-05-06T14:05:06.795Z,12.85
2019-05-06T14:07:37.231Z,12.71
2019-05-06T14:10:07.964Z,12.61
2019-05-06T14:12:38.880Z,12.57
2019-05-06T14:15:09.343Z,12.65
2019-05-06T14:17:42.180Z,12.73
2019-05-06T14:20:12.636Z,12.82
2019-05-06T14:22:43.878Z,12.99
2019-05-06T14:25:36.858Z,13.13
2019-05-06T14:28:21.761Z,13.34
2019-05-06T14:30:58.915Z,13.41
2019-05-06T14:33:29.514Z,13.82
2019-05-06T14:36:00.199Z,13.63
2019-05-06T14:38:32.268Z,13.87
2019-05-06T14:41:26.786Z,13.90
2019-05-06T14:43:55.114Z,13.77
2019-05-06T14:46:27.344Z,13.31
2019-05-06T14:48:57.676Z,13.36
2019-05-06T14:51:28.199Z,13.35
2019-05-06T14:53:58.586Z,13.21
2019-05-06T14:56:44.564Z,12.94
2019-05-06T14:59:14.903Z,12.61
2019-05-06T15:01:45.834Z,12.33
2019-05-06T15:04:16.454Z,11.89
2019-05-06T15:06:47.177Z,11.53
2019-05-06T15:09:17.786Z,11.07
2019-05-06T15:11:48.204Z,10.71
2019-05-06T15:14:18.699Z,10.44
2019-05-06T15:16:49.047Z,10.28
2019-05-06T15:19:19.385Z,10.10
2019-05-06T15:21:52.876Z,9.96
2019-05-06T15:24:24.421Z,9.93
2019-05-06T15:26:56.767Z,9.91
2019-05-06T15:29:27.081Z,9.85
2019-05-06T15:32:13.030Z,9.87
2019-05-06T15:34:57.844Z,9.76
2019-05-06T15:37:36.867Z,9.76
2019-05-06T15:40:09.367Z,9.65
2019-05-06T15:42:39.631Z,9.47
2019-05-06T15:45:12.618Z,9.31
2019-05-06T15:47:43.052Z,9.13
2019-05-06T15:50:13.713Z,9.00
2019-05-06T15:52:43.997Z,8.91
2019-05-06T15:55:15.063Z,8.84
2019-05-06T15:57:45.667Z,8.55
2019-05-06T16:00:18.367Z,8.55
2019-05-06T16:02:48.963Z,8.54
2019-05-06T16:05:25.143Z,8.54
2019-05-06T16:07:52.873Z,8.54
2019-05-06T16:10:26.051Z,8.61
2019-05-06T16:12:58.824Z,8.65
2019-05-06T16:15:29.311Z,8.79
2019-05-06T16:18:02.428Z,8.86
2019-05-06T16:20:33.235Z,8.97
2019-05-06T16:23:16.769Z,8.93
2019-05-06T16:25:48.526Z,8.86
2019-05-06T16:28:18.925Z,8.83
2019-05-06T16:30:49.749Z,8.80
2019-05-06T16:33:22.068Z,8.81
2019-05-06T16:35:53.935Z,8.80
2019-05-06T16:38:24.311Z,8.85
2019-05-06T16:41:09.472Z,8.88
2019-05-06T16:43:26.979Z,8.86
2019-05-06T16:45:57.548Z,8.83
2019-05-06T16:48:28.135Z,8.86
2019-05-06T16:50:58.820Z,8.96
2019-05-06T16:53:32.372Z,9.03
2019-05-06T16:56:13.683Z,9.08
2019-05-06T16:58:52.509Z,9.08
2019-05-06T17:01:23.463Z,9.15
2019-05-06T17:04:03.446Z,9.17
2019-05-06T17:06:36.246Z,9.23
2019-05-06T17:09:19.947Z,9.29
2019-05-06T17:11:42.618Z,9.23
2019-05-06T17:14:13.059Z,9.18
2019-05-06T17:16:43.354Z,9.13
2019-05-06T17:19:13.754Z,9.08
2019-05-06T17:21:44.069Z,9.07
2019-05-06T17:24:14.433Z,9.07
2019-05-06T17:26:46.829Z,9.05
2019-05-06T17:29:42.817Z,9.00
2019-05-06T17:32:22.158Z,8.94
2019-05-06T17:34:57.179Z,8.88
2019-05-06T17:37:43.356Z,8.86
2019-05-06T17:40:15.807Z,8.87
2019-05-06T17:42:46.138Z,8.84
2019-05-06T17:45:36.091Z,8.83
2019-05-06T17:48:20.321Z,8.79
2019-05-06T17:51:10.287Z,8.79
2019-05-06T17:53:42.733Z,8.80
2019-05-06T17:56:13.432Z,8.83
2019-05-06T17:58:43.876Z,8.85
2019-05-06T18:01:15.888Z,8.85
2019-05-06T18:03:46.284Z,8.84
2019-05-06T18:06:17.940Z,8.85
2019-05-06T18:08:49.383Z,8.86
2019-05-06T18:11:22.269Z,8.87
2019-05-06T18:13:52.433Z,8.88
2019-05-06T18:16:24.216Z,8.91
2019-05-06T18:18:54.770Z,8.91
2019-05-06T18:21:25.127Z,8.87
2019-05-06T18:23:55.471Z,8.84
2019-05-06T18:26:25.808Z,8.82
2019-05-06T18:28:58.346Z,8.78
2019-05-06T18:31:28.312Z,8.73
2019-05-06T18:33:58.626Z,8.67
2019-05-06T18:36:28.948Z,8.62
2019-05-06T18:38:59.518Z,8.57
2019-05-06T18:41:29.821Z,8.54
2019-05-06T18:44:00.569Z,8.47
2019-05-06T18:46:32.359Z,8.47
2019-05-06T18:49:03.409Z,8.44
2019-05-06T18:51:33.694Z,8.40
2019-05-06T18:54:04.221Z,8.37
2019-05-06T18:56:34.507Z,8.35
2019-05-06T18:59:06.273Z,8.34
2019-05-06T19:01:36.797Z,8.32
2019-05-06T19:04:26.323Z,8.28
2019-05-06T19:07:09.232Z,8.22
2019-05-06T19:09:52.668Z,8.16
2019-05-06T19:12:31.745Z,7.89
2019-05-06T19:14:55.285Z,7.89
2019-05-06T19:17:25.942Z,7.80
2019-05-06T19:19:56.275Z,7.71
2019-05-06T19:22:27.827Z,7.68
2019-05-06T19:24:58.056Z,7.72
2019-05-06T19:27:28.582Z,7.80
2019-05-06T19:29:58.878Z,7.87
2019-05-06T19:32:34.960Z,7.89
2019-05-06T19:35:03.015Z,7.86
2019-05-06T19:37:33.576Z,7.79
2019-05-06T19:40:04.022Z,7.79
2019-05-06T19:42:46.322Z,7.80
2019-05-06T19:45:07.275Z,7.84
2019-05-06T19:47:37.738Z,7.90
2019-05-06T19:50:08.817Z,7.96
2019-05-06T19:52:42.198Z,8.05
2019-05-06T19:55:12.486Z,8.13
2019-05-06T19:57:43.169Z,8.16
2019-05-06T20:00:14.171Z,8.18
2019-05-06T20:02:44.600Z,8.21
2019-05-06T20:05:33.945Z,8.19
2019-05-06T20:08:32.628Z,8.18
2019-05-06T20:11:22.818Z,8.17
2019-05-06T20:13:53.162Z,8.15
2019-05-06T20:16:23.463Z,8.14
2019-05-06T20:18:53.816Z,8.15
2019-05-06T20:21:24.318Z,8.13
2019-05-06T20:23:54.656Z,8.13
2019-05-06T20:26:25.522Z,8.14
2019-05-06T20:28:55.899Z,8.12
2019-05-06T20:31:28.535Z,8.10
2019-05-06T20:33:59.255Z,8.10
2019-05-06T20:36:29.964Z,8.08
2019-05-06T20:39:02.530Z,8.07
2019-05-06T20:41:34.872Z,8.07
2019-05-06T20:44:05.382Z,8.03
2019-05-06T20:46:37.477Z,8.02
2019-05-06T20:49:07.861Z,8.02
2019-05-06T20:51:39.081Z,8.02
2019-05-06T20:54:09.373Z,8.05
2019-05-06T20:56:42.011Z,8.03
2019-05-06T20:59:12.285Z,8.03
2019-05-06T21:01:42.681Z,8.01
2019-05-06T21:06:56.372Z,8.01
2019-05-06T21:09:26.717Z,7.99
2019-05-06T21:11:57.852Z,7.99
2019-05-06T21:14:28.245Z,7.98
2019-05-06T21:17:02.866Z,7.97
2019-05-06T21:19:33.354Z,7.97
2019-05-06T21:22:03.588Z,7.96
2019-05-06T21:24:36.069Z,7.96
2019-05-06T21:27:06.096Z,7.96
2019-05-06T21:29:36.544Z,7.94
2019-05-06T21:32:06.845Z,7.93
2019-05-06T21:34:37.419Z,7.96
2019-05-06T21:37:07.942Z,7.93
2019-05-06T21:39:38.609Z,7.92
2019-05-06T21:42:12.213Z,7.93
2019-05-06T21:44:42.974Z,7.92
2019-05-06T21:47:13.299Z,7.90
2019-05-06T21:49:43.903Z,7.90
2019-05-06T21:52:14.273Z,7.88
2019-05-06T21:54:44.670Z,7.89
2019-05-06T21:57:14.991Z,7.87
2019-05-06T21:59:45.465Z,7.87
2019-05-06T22:02:17.559Z,7.85
2019-05-06T22:04:48.230Z,7.86
2019-05-06T22:07:18.712Z,7.86
2019-05-06T22:09:49.053Z,7.84
2019-05-06T22:12:19.736Z,7.86
2019-05-06T22:14:50.229Z,7.85
2019-05-06T22:17:22.519Z,7.85
2019-05-06T22:19:53.519Z,7.82
2019-05-06T22:22:26.259Z,7.77
2019-05-06T22:24:58.134Z,7.71
2019-05-06T22:27:29.551Z,7.64
2019-05-06T22:29:59.874Z,7.61
2019-05-06T22:32:33.083Z,7.60
2019-05-06T22:35:04.699Z,7.57
2019-05-06T22:37:36.232Z,7.53
2019-05-06T22:40:06.810Z,7.51
2019-05-06T22:42:37.101Z,7.48
2019-05-06T22:45:07.852Z,7.48
2019-05-06T22:47:38.388Z,7.47
2019-05-06T22:50:08.889Z,7.43
2019-05-06T22:52:39.148Z,7.41
2019-05-06T22:55:09.577Z,7.39
2019-05-06T22:57:42.225Z,7.40
2019-05-06T23:00:18.488Z,7.38
2019-05-06T23:02:56.580Z,7.41
2019-05-06T23:05:26.944Z,7.41
2019-05-06T23:07:57.241Z,7.39
2019-05-06T23:10:27.526Z,7.37
2019-05-06T23:12:58.091Z,7.37
2019-05-06T23:15:34.015Z,7.37
2019-05-06T23:18:02.433Z,7.38
2019-05-06T23:20:33.905Z,7.39
2019-05-06T23:23:05.769Z,7.39
2019-05-06T23:25:36.092Z,7.37
2019-05-06T23:28:06.467Z,7.36
2019-05-06T23:30:37.044Z,7.37
2019-05-06T23:33:08.564Z,7.34
2019-05-06T23:35:38.838Z,7.31
2019-05-06T23:38:45.536Z,7.28
2019-05-06T23:41:52.873Z,7.26
2019-05-06T23:44:58.447Z,7.25
2019-05-06T23:48:07.445Z,7.22
2019-05-06T23:51:13.215Z,7.22
2019-05-06T23:54:19.112Z,7.22
2019-05-06T23:56:48.743Z,7.20
2019-05-06T23:59:19.557Z,7.19
